Time;durP1;ratioP1;P1;durP2;ratioP2;P2;SDS_P1;SDS_P2;PMS_P1;PMS_P2;Temp;Humidity;BMP_temperature;BMP_pressure;BME280_temperature;BME280_humidity;BME280_pressure;Samples;Min_cycle;Max_cycle;Signal;HPM_P1;HPM_P2
2021/12/03 00:00:26;;;;;;;7.35;5.90;;;;;;;5.95;61.47;97704.03;3394620;29;20043;-74
2021/12/03 00:02:07;;;;;;;9.02;6.55;;;;;;;5.94;61.28;97710.34;3389933;29;20044;-73
2021/12/03 00:03:47;;;;;;;8.70;5.95;;;;;;;5.92;61.32;97690.41;3395409;29;20123;-73
2021/12/03 00:05:28;;;;;;;7.00;5.35;;;;;;;5.92;61.24;97696.50;3395822;29;20032;-73
2021/12/03 00:07:09;;;;;;;9.98;6.63;;;;;;;5.94;61.34;97705.06;3395636;29;20043;-73
2021/12/03 00:08:50;;;;;;;9.10;6.30;;;;;;;5.94;61.48;97699.78;3394332;29;20042;-75
2021/12/03 00:10:31;;;;;;;7.40;5.68;;;;;;;5.96;61.47;97702.19;3391435;29;20059;-74
2021/12/03 00:12:12;;;;;;;10.40;5.80;;;;;;;5.96;61.30;97713.56;3395960;29;20036;-76
2021/12/03 00:13:53;;;;;;;8.23;6.10;;;;;;;5.94;61.58;97718.28;3393437;29;20396;-75
2021/12/03 00:15:34;;;;;;;9.95;6.25;;;;;;;5.92;61.47;97717.66;3395798;29;20096;-76
2021/12/03 00:17:15;;;;;;;9.93;5.75;;;;;;;5.88;61.48;97700.59;3395814;29;20084;-75
2021/12/03 00:18:56;;;;;;;8.02;5.60;;;;;;;5.90;61.51;97707.28;3388410;29;20032;-75
2021/12/03 00:20:38;;;;;;;8.45;5.28;;;;;;;5.92;61.30;97711.56;3396668;29;20124;-76
2021/12/03 00:22:18;;;;;;;7.05;5.13;;;;;;;5.93;61.36;97716.63;3391818;29;20411;-76
2021/12/03 00:23:59;;;;;;;9.07;6.13;;;;;;;5.95;61.01;97719.09;3394770;29;20039;-73
2021/12/03 00:25:40;;;;;;;10.00;6.35;;;;;;;5.94;61.48;97707.72;3394746;29;20051;-74
2021/12/03 00:27:21;;;;;;;7.18;5.40;;;;;;;5.93;61.63;97708.69;3395821;29;20047;-74
2021/12/03 00:29:02;;;;;;;5.90;4.93;;;;;;;5.91;61.72;97710.72;3396096;29;20141;-74
2021/12/03 00:30:42;;;;;;;8.60;6.13;;;;;;;5.94;61.71;97722.75;3393450;29;20046;-75
2021/12/03 00:32:24;;;;;;;8.27;5.93;;;;;;;5.94;61.65;97709.53;3396340;29;20082;-74
2021/12/03 00:34:04;;;;;;;7.82;5.78;;;;;;;5.94;61.67;97713.00;3396370;29;20044;-74
2021/12/03 00:35:45;;;;;;;8.32;5.88;;;;;;;5.93;61.67;97703.41;3398331;29;20537;-76
2021/12/03 00:37:26;;;;;;;9.02;5.32;;;;;;;5.96;61.67;97705.63;3397890;29;20043;-73
2021/12/03 00:39:07;;;;;;;7.18;5.30;;;;;;;5.98;61.50;97705.44;3397829;29;20486;-74
2021/12/03 00:40:48;;;;;;;8.32;5.70;;;;;;;5.97;61.57;97704.63;3396988;29;20035;-75
2021/12/03 00:42:29;;;;;;;9.43;6.18;;;;;;;5.99;61.54;97704.41;3393165;29;20531;-75
2021/12/03 00:44:10;;;;;;;9.73;5.18;;;;;;;5.99;61.56;97702.59;3397763;29;20128;-74
2021/12/03 00:45:53;;;;;;;7.57;5.38;;;;;;;6.01;61.39;97695.22;3401981;29;20052;-75
2021/12/03 00:47:34;;;;;;;11.23;5.88;;;;;;;6.03;61.53;97709.06;3391056;29;20499;-73
2021/12/03 00:49:15;;;;;;;5.95;4.93;;;;;;;6.03;61.38;97706.41;3397965;29;20071;-74
2021/12/03 00:50:55;;;;;;;7.97;6.07;;;;;;;6.04;61.45;97704.56;3391368;29;20582;-73
2021/12/03 00:52:37;;;;;;;9.10;6.43;;;;;;;5.95;61.30;97676.78;3396456;29;20036;-75
2021/12/03 00:54:17;;;;;;;5.57;5.00;;;;;;;6.08;61.34;97690.72;3394888;29;20044;-74
2021/12/03 00:55:58;;;;;;;7.72;5.88;;;;;;;6.09;61.09;97696.81;3396237;29;20637;-76
2021/12/03 00:57:39;;;;;;;10.65;5.30;;;;;;;6.11;61.14;97716.72;3397987;29;20039;-77
2021/12/03 00:59:20;;;;;;;9.38;5.10;;;;;;;6.10;61.28;97699.25;3398378;29;20161;-75
2021/12/03 01:01:00;;;;;;;8.95;5.70;;;;;;;6.10;61.43;97712.47;3395376;29;20040;-73
2021/12/03 01:02:42;;;;;;;7.03;5.50;;;;;;;6.09;61.29;97717.97;3397001;29;20044;-73
2021/12/03 01:04:23;;;;;;;10.10;6.35;;;;;;;6.10;61.48;97720.41;3398816;29;20039;-74
2021/12/03 01:06:05;;;;;;;7.25;5.10;;;;;;;6.12;61.35;97722.84;3401794;29;20063;-75
2021/12/03 01:07:45;;;;;;;7.45;5.68;;;;;;;6.14;61.24;97717.31;3396702;29;20503;-76
2021/12/03 01:09:26;;;;;;;8.00;5.18;;;;;;;6.14;61.17;97719.97;3403693;29;20043;-73
2021/12/03 01:11:08;;;;;;;7.97;5.40;;;;;;;6.16;61.34;97726.66;3401398;29;20119;-74
2021/12/03 01:12:49;;;;;;;10.40;6.40;;;;;;;6.18;61.38;97727.28;3403676;29;20036;-75
2021/12/03 01:14:30;;;;;;;8.02;5.53;;;;;;;6.19;61.27;97726.22;3401428;29;20047;-76
2021/12/03 01:16:13;;;;;;;7.28;5.40;;;;;;;6.21;61.21;97721.53;3390961;29;20063;-74
2021/12/03 01:17:54;;;;;;;8.70;5.60;;;;;;;6.26;61.06;97718.25;3393449;29;20142;-76
2021/12/03 01:19:35;;;;;;;12.60;5.60;;;;;;;6.28;61.08;97732.88;3400487;29;20040;-74
2021/12/03 01:21:15;;;;;;;8.55;5.57;;;;;;;6.30;60.88;97724.75;3395329;29;20091;-73
2021/12/03 01:22:57;;;;;;;11.85;5.97;;;;;;;6.32;61.01;97727.97;3394809;29;20448;-72
2021/12/03 01:24:38;;;;;;;8.85;4.70;;;;;;;6.38;61.20;97735.06;3397759;29;20044;-71
2021/12/03 01:26:20;;;;;;;6.57;5.25;;;;;;;6.42;61.46;97738.88;3392186;29;20081;-73
2021/12/03 01:28:01;;;;;;;5.85;4.47;;;;;;;6.48;61.85;97735.38;3395739;29;20047;-72
2021/12/03 01:29:42;;;;;;;7.50;5.28;;;;;;;6.51;61.91;97742.09;3402532;29;20039;-73
2021/12/03 01:31:22;;;;;;;12.13;5.63;;;;;;;6.57;61.75;97735.91;3396155;29;20426;-73
2021/12/03 01:33:06;;;;;;;8.35;5.22;;;;;;;6.64;61.99;97735.88;3395981;29;20046;-71
2021/12/03 01:34:46;;;;;;;4.88;3.97;;;;;;;6.71;62.11;97739.25;3401170;29;20498;-72
2021/12/03 01:36:27;;;;;;;7.82;4.75;;;;;;;6.76;62.26;97742.03;3394715;29;20075;-73
2021/12/03 01:38:08;;;;;;;9.77;5.40;;;;;;;6.81;62.22;97736.91;3394863;29;20411;-72
2021/12/03 01:39:49;;;;;;;8.18;5.53;;;;;;;6.84;62.19;97731.19;3401240;29;20399;-73
2021/12/03 01:41:32;;;;;;;7.47;5.35;;;;;;;6.87;62.16;97732.59;3393520;29;20068;-72
2021/12/03 01:43:20;;;;;;;9.10;5.50;;;;;;;6.90;62.30;97748.84;3396800;29;20047;-71
2021/12/03 01:45:01;;;;;;;5.90;4.53;;;;;;;6.94;62.20;97736.78;3395249;29;20043;-70
2021/12/03 01:46:42;;;;;;;5.70;4.85;;;;;;;7.03;62.13;97749.75;3401973;29;20598;-70
2021/12/03 01:48:23;;;;;;;6.45;5.20;;;;;;;7.09;62.06;97751.50;3394810;29;20080;-70
2021/12/03 01:50:04;;;;;;;7.05;4.95;;;;;;;7.11;62.07;97752.09;3394953;29;20356;-71
2021/12/03 01:51:45;;;;;;;6.00;4.73;;;;;;;7.13;62.07;97761.44;3393513;29;20209;-70
2021/12/03 01:53:28;;;;;;;7.75;5.20;;;;;;;7.16;61.93;97762.84;3394434;29;20299;-70
2021/12/03 01:55:11;;;;;;;8.18;4.95;;;;;;;7.22;61.76;97754.81;3393592;29;20079;-70
2021/12/03 01:56:52;;;;;;;6.22;5.05;;;;;;;7.28;61.67;97760.25;3396072;29;20066;-71
2021/12/03 01:58:32;;;;;;;6.85;4.60;;;;;;;7.32;61.57;97762.25;3396515;29;20115;-71
2021/12/03 02:00:37;;;;;;;6.30;5.47;;;;;;;7.33;61.85;97782.44;3396987;29;20043;-72
2021/12/03 02:02:18;;;;;;;6.90;5.43;;;;;;;7.33;61.39;97761.25;3392577;29;20393;-71
2021/12/03 02:04:00;;;;;;;8.30;5.53;;;;;;;7.30;61.54;97768.81;3395460;29;20051;-73
2021/12/03 02:05:42;;;;;;;;;;;;;;;7.41;61.21;97771.53;3401632;29;20036;-71
2021/12/03 02:07:23;;;;;;;6.28;4.35;;;;;;;7.34;61.30;97770.00;3397789;29;19923;-71
2021/12/03 02:09:05;;;;;;;7.63;5.18;;;;;;;7.31;61.38;97773.09;3396891;29;20035;-72
2021/12/03 02:10:46;;;;;;;7.75;5.15;;;;;;;7.31;61.22;97773.09;3381091;29;20072;-73
2021/12/03 02:12:27;;;;;;;7.72;5.35;;;;;;;7.30;61.12;97776.75;3392989;29;20426;-71
2021/12/03 02:14:08;;;;;;;7.95;4.70;;;;;;;7.32;61.12;97780.81;3399704;29;20043;-72
2021/12/03 02:15:49;;;;;;;6.70;4.97;;;;;;;7.33;61.37;97782.44;3394555;29;20537;-71
2021/12/03 02:17:29;;;;;;;6.28;5.22;;;;;;;7.34;61.41;97781.41;3397186;29;20051;-73
2021/12/03 02:19:10;;;;;;;8.77;6.40;;;;;;;7.34;61.23;97785.91;3396815;29;20054;-72
2021/12/03 02:20:56;;;;;;;6.72;4.75;;;;;;;7.36;61.09;97776.69;3395380;29;20040;-71
2021/12/03 02:22:37;;;;;;;6.95;4.70;;;;;;;7.38;61.08;97782.59;3395037;29;20039;-72
2021/12/03 02:24:21;;;;;;;6.55;4.57;;;;;;;7.45;61.07;97787.00;3399787;29;20040;-71
2021/12/03 02:26:03;;;;;;;7.53;5.50;;;;;;;7.46;60.91;97785.94;3397600;29;20410;-71
2021/12/03 02:27:44;;;;;;;7.90;4.75;;;;;;;7.45;60.81;97785.16;3389618;29;20459;-71
2021/12/03 02:29:24;;;;;;;6.95;5.78;;;;;;;7.46;60.55;97785.94;3398542;29;20067;-71
2021/12/03 02:31:05;;;;;;;10.30;4.63;;;;;;;7.48;60.44;97789.19;3393261;29;20507;-71
2021/12/03 02:32:49;;;;;;;6.88;5.03;;;;;;;7.51;60.59;97789.59;3394936;29;20036;-71
2021/12/03 02:34:30;;;;;;;8.70;4.93;;;;;;;7.54;60.50;97788.34;3394061;29;20039;-71
2021/12/03 02:36:13;;;;;;;7.63;5.43;;;;;;;7.53;60.35;97789.34;3397609;29;20051;-71
2021/12/03 02:37:55;;;;;;;6.50;5.25;;;;;;;7.51;60.39;97789.59;3396021;29;20035;-71
2021/12/03 02:39:35;;;;;;;9.75;4.97;;;;;;;7.48;60.22;97784.69;3393764;29;20079;-72
2021/12/03 02:41:16;;;;;;;7.05;5.00;;;;;;;7.45;60.30;97789.66;3398915;29;20463;-72
2021/12/03 02:42:57;;;;;;;8.63;5.47;;;;;;;7.42;60.37;97786.41;3396639;29;21241;-70
2021/12/03 02:44:38;;;;;;;6.72;5.32;;;;;;;7.42;60.47;97781.09;3393403;29;20032;-72
2021/12/03 02:46:19;;;;;;;6.15;4.85;;;;;;;7.46;60.46;97786.78;3394936;29;20040;-72
2021/12/03 02:48:00;;;;;;;7.20;4.95;;;;;;;7.47;60.31;97796.34;3394793;29;20075;-73
2021/12/03 02:49:42;;;;;;;7.60;5.43;;;;;;;7.51;60.45;97788.75;3394941;29;20554;-72
2021/12/03 02:51:24;;;;;;;6.95;5.68;;;;;;;7.52;60.25;97785.09;3395840;29;20035;-73
2021/12/03 02:53:05;;;;;;;8.02;5.68;;;;;;;7.55;60.42;97792.59;3395798;29;20039;-73
2021/12/03 02:54:46;;;;;;;9.63;6.32;;;;;;;7.55;60.10;97789.94;3393298;29;20553;-72
2021/12/03 02:56:26;;;;;;;8.13;4.90;;;;;;;7.59;60.11;97780.50;3398726;29;20052;-71
2021/12/03 02:58:08;;;;;;;8.38;6.15;;;;;;;7.60;60.21;97782.13;3392842;29;20051;-71
2021/12/03 02:59:48;;;;;;;8.18;6.07;;;;;;;7.65;60.11;97795.53;3391884;29;20047;-72
2021/12/03 03:01:29;;;;;;;7.38;5.15;;;;;;;7.65;60.10;97790.22;3395228;29;20531;-74
2021/12/03 03:03:10;;;;;;;8.85;5.45;;;;;;;7.66;60.05;97791.84;3396602;29;20070;-73
2021/12/03 03:04:52;;;;;;;9.20;5.97;;;;;;;7.66;60.12;97802.44;3395812;29;20071;-74
2021/12/03 03:06:34;;;;;;;7.57;5.45;;;;;;;7.62;60.02;97798.63;3399525;29;20039;-74
2021/12/03 03:08:15;;;;;;;7.82;5.72;;;;;;;7.62;60.21;97801.28;3393536;29;20067;-72
2021/12/03 03:09:56;;;;;;;6.93;5.90;;;;;;;7.57;60.25;97809.09;3401013;29;20050;-72
2021/12/03 03:11:37;;;;;;;7.85;5.47;;;;;;;7.58;60.05;97800.91;3393793;29;20039;-72
2021/12/03 03:13:18;;;;;;;7.38;5.15;;;;;;;7.59;60.21;97801.69;3398634;29;20039;-73
2021/12/03 03:14:59;;;;;;;8.65;5.70;;;;;;;7.59;60.00;97799.03;3395086;29;20562;-74
2021/12/03 03:16:40;;;;;;;9.65;5.82;;;;;;;7.62;60.32;97806.59;3389224;29;20044;-73
2021/12/03 03:18:23;;;;;;;9.05;5.65;;;;;;;7.60;60.20;97809.44;3398406;29;20420;-73
2021/12/03 03:20:05;;;;;;;8.45;5.85;;;;;;;7.60;60.03;97808.63;3400299;29;20094;-72
2021/12/03 03:21:47;;;;;;;8.65;5.90;;;;;;;7.63;60.29;97806.34;3394522;29;20054;-74
2021/12/03 03:23:28;;;;;;;7.57;5.28;;;;;;;7.64;60.25;97804.50;3408014;29;20062;-73
2021/12/03 03:25:12;;;;;;;8.50;5.82;;;;;;;7.64;60.07;97821.25;3398783;29;20071;-75
2021/12/03 03:26:52;;;;;;;10.68;6.50;;;;;;;7.61;60.05;97820.84;3391107;29;20040;-72
2021/12/03 03:28:34;;;;;;;7.70;5.55;;;;;;;7.59;60.03;97822.91;3396182;29;20554;-72
2021/12/03 03:30:16;;;;;;;29.38;6.80;;;;;;;7.58;59.93;97818.66;3391250;29;20044;-72
2021/12/03 03:31:57;;;;;;;8.88;5.93;;;;;;;7.58;60.11;97819.44;3394632;29;20452;-71
2021/12/03 03:33:38;;;;;;;9.38;6.00;;;;;;;7.60;60.01;97824.53;3396763;29;20043;-71
2021/12/03 03:35:18;;;;;;;8.25;6.60;;;;;;;7.64;59.78;97831.84;3393090;29;20182;-71
2021/12/03 03:36:59;;;;;;;7.63;6.22;;;;;;;7.67;59.98;97814.69;3392610;29;20419;-71
2021/12/03 03:38:39;;;;;;;10.35;5.85;;;;;;;7.71;60.10;97815.03;3392272;29;20039;-72
2021/12/03 03:40:20;;;;;;;10.30;6.90;;;;;;;7.72;59.96;97812.16;3398098;29;20063;-71
2021/12/03 03:42:02;;;;;;;11.00;6.30;;;;;;;7.69;59.93;97812.59;3395827;29;20063;-72
2021/12/03 03:43:43;;;;;;;9.93;6.20;;;;;;;7.63;59.90;97819.59;3390463;29;20069;-72
2021/12/03 03:45:24;;;;;;;10.65;6.25;;;;;;;7.57;59.62;97823.16;3396145;29;20529;-70
2021/12/03 03:47:06;;;;;;;11.00;6.85;;;;;;;7.53;59.91;97829.91;3394550;29;20527;-71
2021/12/03 03:48:47;;;;;;;;;;;;;;;7.64;59.61;97825.69;3394442;29;20137;-71
2021/12/03 03:50:27;;;;;;;8.70;5.68;;;;;;;7.57;59.72;97828.44;3393110;29;19919;-70
2021/12/03 03:52:08;;;;;;;10.85;7.40;;;;;;;7.55;59.63;97827.06;3393339;29;20052;-69
2021/12/03 03:53:49;;;;;;;11.35;6.18;;;;;;;7.53;59.76;97837.06;3395072;29;20047;-70
2021/12/03 03:55:31;;;;;;;10.05;6.45;;;;;;;7.51;59.87;97836.47;3396087;29;20040;-71
2021/12/03 03:57:12;;;;;;;7.97;5.68;;;;;;;7.51;59.86;97845.25;3395797;29;20050;-71
2021/12/03 03:58:53;;;;;;;8.60;6.00;;;;;;;7.51;59.91;97831.16;3401730;29;20059;-71
2021/12/03 04:00:39;;;;;;;8.80;6.00;;;;;;;7.54;59.70;97851.94;3390070;29;20175;-71
2021/12/03 04:02:20;;;;;;;7.00;6.30;;;;;;;7.50;59.83;97842.81;3394861;29;20036;-70
2021/12/03 04:04:01;;;;;;;8.13;6.07;;;;;;;7.47;59.53;97845.91;3392346;29;20523;-70
2021/12/03 04:05:41;;;;;;;8.60;6.20;;;;;;;7.48;59.67;97852.81;3395167;29;20035;-70
2021/12/03 04:07:22;;;;;;;10.32;6.63;;;;;;;7.49;59.75;97849.16;3394627;29;20064;-73
2021/12/03 04:09:03;;;;;;;12.20;6.32;;;;;;;7.49;59.73;97849.16;3387689;29;20157;-74
2021/12/03 04:10:46;;;;;;;6.97;5.93;;;;;;;7.50;59.56;97850.75;3374824;29;20056;-72
2021/12/03 04:12:26;;;;;;;13.85;7.28;;;;;;;7.52;59.49;97848.69;3395687;29;20036;-72
2021/12/03 04:14:07;;;;;;;12.63;7.32;;;;;;;7.51;59.33;97852.38;3397804;29;20043;-73
2021/12/03 04:15:48;;;;;;;11.80;6.72;;;;;;;7.48;59.08;97848.31;3396068;29;20039;-71
2021/12/03 04:17:29;;;;;;;12.85;7.50;;;;;;;7.45;59.14;97858.56;3398205;29;20138;-73
2021/12/03 04:19:09;;;;;;;13.57;7.05;;;;;;;7.40;59.03;97865.31;3390797;29;20116;-72
2021/12/03 04:20:50;;;;;;;9.25;6.45;;;;;;;7.36;59.03;97860.69;3394860;29;20052;-73
2021/12/03 04:22:32;;;;;;;9.13;5.93;;;;;;;7.32;59.17;97862.16;3393053;29;20189;-73
2021/12/03 04:24:13;;;;;;;7.57;6.80;;;;;;;7.31;58.98;97864.00;3398559;29;20090;-73
2021/12/03 04:25:54;;;;;;;7.78;6.28;;;;;;;7.28;58.95;97861.78;3395848;29;20052;-73
2021/12/03 04:27:34;;;;;;;12.80;7.45;;;;;;;7.26;58.88;97873.63;3392550;29;20159;-73
2021/12/03 04:29:15;;;;;;;11.25;7.22;;;;;;;7.23;58.72;97872.22;3401424;29;20040;-74
2021/12/03 04:30:56;;;;;;;11.38;6.82;;;;;;;7.19;58.73;97871.81;3394796;29;20127;-72
2021/12/03 04:32:37;;;;;;;10.68;6.72;;;;;;;7.15;58.78;97870.66;3402164;29;20050;-72
2021/12/03 04:34:17;;;;;;;9.82;5.97;;;;;;;7.13;58.72;97871.91;3395400;29;20119;-72
2021/12/03 04:35:58;;;;;;;11.27;6.45;;;;;;;7.13;58.83;97874.56;3396056;29;20051;-76
2021/12/03 04:37:39;;;;;;;9.13;7.20;;;;;;;7.11;58.75;97868.66;3397638;29;20040;-74
2021/12/03 04:39:20;;;;;;;10.80;7.22;;;;;;;7.06;58.71;97874.59;3392037;29;20048;-74
2021/12/03 04:41:01;;;;;;;9.13;6.72;;;;;;;7.06;58.50;97873.78;3402387;29;20043;-75
2021/12/03 04:42:42;;;;;;;9.68;7.22;;;;;;;7.04;58.58;97881.13;3403042;29;20063;-72
2021/12/03 04:44:23;;;;;;;9.48;6.95;;;;;;;6.99;58.64;97876.47;3394979;29;20043;-71
2021/12/03 04:46:03;;;;;;;10.93;7.40;;;;;;;6.97;58.64;97886.50;3395453;29;20456;-72
2021/12/03 04:47:48;;;;;;;10.32;7.10;;;;;;;6.93;58.69;97888.75;3397447;29;20094;-71
2021/12/03 04:49:30;;;;;;;11.15;7.43;;;;;;;6.90;58.80;97881.25;3397030;29;20043;-71
2021/12/03 04:51:11;;;;;;;8.77;6.97;;;;;;;6.87;58.72;97883.53;3392332;29;20517;-71
2021/12/03 04:52:52;;;;;;;10.18;6.90;;;;;;;6.87;58.82;97878.22;3398054;29;20043;-70
2021/12/03 04:54:33;;;;;;;11.68;6.50;;;;;;;6.88;59.01;97893.09;3394040;29;20042;-71
2021/12/03 04:56:13;;;;;;;12.88;7.32;;;;;;;6.87;58.82;97902.88;3400970;29;20047;-71
2021/12/03 04:57:55;;;;;;;9.05;6.57;;;;;;;6.83;58.88;97888.41;3395562;29;20031;-72
2021/12/03 04:59:35;;;;;;;10.43;7.07;;;;;;;6.84;58.98;97897.16;3395007;29;20095;-70
2021/12/03 05:01:16;;;;;;;16.60;7.30;;;;;;;6.83;59.02;97901.66;3395754;29;20746;-71
2021/12/03 05:02:57;;;;;;;9.52;7.00;;;;;;;6.82;58.99;97923.88;3402974;29;20047;-73
2021/12/03 05:04:39;;;;;;;11.93;8.02;;;;;;;6.81;58.79;97901.06;3402160;29;20441;-73
2021/12/03 05:06:30;;;;;;;10.95;6.35;;;;;;;6.81;58.89;97895.75;3398487;29;20040;-73
2021/12/03 05:08:11;;;;;;;9.05;6.65;;;;;;;6.81;59.01;97890.47;3389664;29;20056;-72
2021/12/03 05:09:51;;;;;;;11.55;6.82;;;;;;;6.80;58.87;97898.66;3397862;29;20484;-73
2021/12/03 05:11:32;;;;;;;12.75;7.53;;;;;;;6.78;58.92;97904.94;3396785;29;20063;-74
2021/12/03 05:13:16;;;;;;;8.38;5.82;;;;;;;6.82;58.74;97907.19;3394229;29;20548;-74
2021/12/03 05:14:57;;;;;;;9.95;7.18;;;;;;;6.82;58.93;97910.66;3394283;29;20122;-74
2021/12/03 05:16:37;;;;;;;11.00;6.88;;;;;;;6.81;58.88;97911.66;3399156;29;20411;-75
2021/12/03 05:18:21;;;;;;;12.40;6.97;;;;;;;6.83;58.89;97914.09;3399528;29;20070;-73
2021/12/03 05:20:03;;;;;;;12.50;6.95;;;;;;;6.84;58.76;97905.13;3399833;29;20415;-72
2021/12/03 05:21:44;;;;;;;11.00;7.55;;;;;;;6.85;58.75;97917.34;3402401;29;20099;-73
2021/12/03 05:23:27;;;;;;;13.93;6.82;;;;;;;6.84;58.87;97915.72;3399819;29;20126;-72
2021/12/03 05:25:08;;;;;;;9.48;6.45;;;;;;;6.79;58.58;97926.97;3394201;29;20043;-70
2021/12/03 05:26:49;;;;;;;8.63;6.90;;;;;;;6.77;58.75;97915.78;3387629;29;20100;-71
2021/12/03 05:28:31;;;;;;;7.22;6.25;;;;;;;6.79;58.83;97929.59;3379058;29;20043;-75
2021/12/03 05:30:13;;;;;;;8.82;6.20;;;;;;;6.76;59.20;97936.16;3395849;29;20414;-73
2021/12/03 05:31:54;;;;;;;12.23;7.32;;;;;;;6.78;58.77;97941.22;3396908;29;20142;-76
2021/12/03 05:33:37;;;;;;;8.90;7.20;;;;;;;6.77;58.72;97940.41;3406693;29;20525;-76
2021/12/03 05:35:19;;;;;;;;;;;;;;;6.89;58.64;97942.34;3401055;29;20055;-73
2021/12/03 05:37:00;;;;;;;10.73;7.35;;;;;;;6.83;58.65;97946.69;3399253;29;19923;-73
2021/12/03 05:38:40;;;;;;;12.95;7.07;;;;;;;6.82;58.52;97945.06;3400477;29;20574;-73
2021/12/03 05:40:23;;;;;;;7.47;6.55;;;;;;;6.84;58.70;97956.25;3399156;29;20052;-74
2021/12/03 05:42:07;;;;;;;12.02;7.95;;;;;;;6.86;59.11;97946.25;3390851;29;20079;-74
2021/12/03 05:43:47;;;;;;;11.68;6.97;;;;;;;6.89;58.53;97967.03;3395596;29;20071;-73
2021/12/03 05:45:31;;;;;;;14.18;7.13;;;;;;;6.89;58.43;97961.72;3397378;29;20058;-70
2021/12/03 05:47:14;;;;;;;8.70;6.28;;;;;;;6.93;58.45;97970.84;3397861;29;20042;-74
2021/12/03 05:48:54;;;;;;;10.93;6.13;;;;;;;6.93;58.39;97970.84;3401260;29;20503;-72
2021/12/03 05:50:37;;;;;;;9.30;7.07;;;;;;;6.94;58.47;97967.19;3398708;29;20047;-73
2021/12/03 05:52:18;;;;;;;9.60;6.63;;;;;;;6.96;58.62;97962.47;3395777;29;20043;-73
2021/12/03 05:53:59;;;;;;;10.32;7.57;;;;;;;6.96;58.57;97962.47;3391816;29;20040;-71
2021/12/03 05:55:40;;;;;;;10.05;7.30;;;;;;;6.98;58.40;97963.09;3400797;29;20091;-73
2021/12/03 05:57:21;;;;;;;9.07;6.63;;;;;;;7.01;58.22;97963.69;3399495;29;20054;-72
2021/12/03 05:59:03;;;;;;;9.77;6.93;;;;;;;7.03;58.44;97966.94;3395509;29;20052;-73
2021/12/03 06:00:44;;;;;;;9.82;6.55;;;;;;;7.04;58.38;97981.78;3399905;29;20050;-70
2021/12/03 06:02:25;;;;;;;14.30;7.10;;;;;;;7.05;58.36;97988.69;3401481;29;20039;-75
2021/12/03 06:04:06;;;;;;;7.95;6.13;;;;;;;7.02;58.25;97970.59;3390964;29;20515;-73
2021/12/03 06:05:47;;;;;;;9.95;7.50;;;;;;;7.04;58.45;97987.09;3388794;29;20051;-74
2021/12/03 06:07:28;;;;;;;12.35;6.93;;;;;;;7.04;58.28;97995.03;3402066;29;20039;-72
2021/12/03 06:09:08;;;;;;;9.00;6.65;;;;;;;7.06;58.32;97998.28;3402164;29;20499;-72
2021/12/03 06:10:49;;;;;;;9.35;6.20;;;;;;;7.07;58.08;98000.69;3401527;29;20040;-75
2021/12/03 06:12:30;;;;;;;8.40;6.13;;;;;;;7.08;58.12;98001.53;3401465;29;20039;-74
2021/12/03 06:14:11;;;;;;;10.13;6.47;;;;;;;7.08;58.25;97997.06;3401620;29;20083;-74
2021/12/03 06:15:52;;;;;;;9.60;6.60;;;;;;;7.10;58.09;97999.47;3401073;29;20043;-75
2021/12/03 06:17:32;;;;;;;8.05;6.43;;;;;;;7.10;58.25;97989.72;3389265;29;20036;-71
2021/12/03 06:19:13;;;;;;;13.50;7.03;;;;;;;7.11;58.13;98004.56;3388660;29;20067;-72
2021/12/03 06:20:54;;;;;;;9.98;7.53;;;;;;;7.12;58.19;97987.63;3388604;29;20528;-73
2021/12/03 06:22:35;;;;;;;9.77;7.05;;;;;;;7.14;58.05;98000.69;3388891;29;20046;-72
2021/12/03 06:24:16;;;;;;;11.18;6.50;;;;;;;7.13;58.11;97988.47;3389582;29;20067;-74
2021/12/03 06:25:58;;;;;;;13.05;7.45;;;;;;;7.11;58.02;97990.50;3400774;29;20103;-81
2021/12/03 06:30:04;;;;;;;9.55;7.20;;;;;;;7.16;58.00;98006.56;3347579;29;20066;-76
2021/12/03 06:31:44;;;;;;;11.27;6.72;;;;;;;7.16;58.05;97991.50;3349593;29;20037;-76
2021/12/03 06:33:25;;;;;;;11.30;6.50;;;;;;;7.19;57.97;98008.78;3349991;29;20052;-77
2021/12/03 06:35:08;;;;;;;8.32;6.18;;;;;;;7.18;58.13;98013.28;3362324;29;20128;-77
2021/12/03 06:36:49;;;;;;;8.82;7.03;;;;;;;7.18;58.02;98007.19;3352943;29;20075;-76
2021/12/03 06:38:31;;;;;;;11.52;6.55;;;;;;;7.16;58.17;98014.53;3355275;29;20053;-76
2021/12/03 06:40:16;;;;;;;13.20;7.80;;;;;;;7.13;58.13;98014.97;3363162;29;20078;-76
2021/12/03 06:41:56;;;;;;;9.57;7.07;;;;;;;7.14;58.19;98016.56;3367949;29;20040;-76
2021/12/03 06:43:37;;;;;;;11.13;7.55;;;;;;;7.13;57.97;98014.97;3375757;29;20044;-77
2021/12/03 06:45:18;;;;;;;12.77;7.22;;;;;;;7.13;58.16;98025.56;3375748;29;20566;-77
2021/12/03 06:47:02;;;;;;;10.05;7.25;;;;;;;7.13;58.06;98017.59;3376042;29;20064;-78
2021/12/03 06:48:42;;;;;;;14.18;7.82;;;;;;;7.13;58.00;98036.16;3375109;29;20044;-77
2021/12/03 06:50:24;;;;;;;11.85;8.38;;;;;;;7.08;58.16;98030.69;3375734;29;20044;-77
2021/12/03 06:52:08;;;;;;;10.23;6.77;;;;;;;7.11;58.16;98035.53;3375047;29;20432;-77
2021/12/03 06:54:01;;;;;;;12.77;7.10;;;;;;;7.14;58.10;98040.41;3375626;29;20376;-76
2021/12/03 06:57:26;;;;;;;7.65;6.00;;;;;;;7.18;58.09;98037.13;3375521;29;20044;-77
2021/12/03 06:59:06;;;;;;;11.25;7.15;;;;;;;7.20;57.88;98042.19;3387467;29;20043;-77
2021/12/03 07:00:50;;;;;;;10.88;7.13;;;;;;;7.22;57.97;98038.31;3374288;29;20033;-77
2021/12/03 07:02:31;;;;;;;9.48;7.00;;;;;;;7.25;57.84;98033.63;3362898;29;20465;-77
2021/12/03 07:04:12;;;;;;;11.40;7.72;;;;;;;7.27;57.76;98036.88;3363566;29;20045;-77
2021/12/03 07:05:53;;;;;;;12.00;6.72;;;;;;;7.27;57.67;98044.81;3375400;29;20048;-78
2021/12/03 07:07:34;;;;;;;10.73;7.80;;;;;;;7.29;57.50;98038.28;3375693;29;20052;-76
2021/12/03 07:09:15;;;;;;;14.87;8.13;;;;;;;7.34;57.67;98046.41;3374505;29;20043;-75
2021/12/03 07:10:55;;;;;;;13.13;7.38;;;;;;;7.36;57.46;98040.91;3387071;29;20387;-77
2021/12/03 07:12:36;;;;;;;10.38;6.97;;;;;;;7.40;57.38;98042.88;3377837;29;20092;-76
2021/12/03 07:14:17;;;;;;;9.52;6.32;;;;;;;7.43;57.49;98046.94;3375100;29;20476;-76
2021/12/03 07:15:58;;;;;;;9.27;7.10;;;;;;;7.44;57.44;98056.53;3375482;29;20120;-76
2021/12/03 07:17:39;;;;;;;8.00;6.43;;;;;;;7.47;57.47;98069.34;3387447;29;20056;-77
2021/12/03 07:19:20;;;;;;;10.57;7.45;;;;;;;7.47;57.38;98057.94;3377447;29;20515;-75
2021/12/03 07:21:01;;;;;;;9.57;6.53;;;;;;;7.52;57.32;98058.91;3363559;29;20047;-78
2021/12/03 07:22:41;;;;;;;7.97;6.40;;;;;;;7.53;57.41;98070.34;3360060;29;20048;-78
2021/12/03 07:24:22;;;;;;;14.02;6.95;;;;;;;7.51;57.24;98059.97;3362005;29;20040;-78
2021/12/03 07:26:03;;;;;;;8.20;7.22;;;;;;;7.53;57.23;98059.72;3363325;29;20053;-78
2021/12/03 07:27:44;;;;;;;11.20;6.93;;;;;;;7.52;57.18;98043.00;3362951;29;20089;-77
2021/12/03 07:29:25;;;;;;;8.23;6.00;;;;;;;7.52;57.07;98047.50;3362755;29;20433;-76
2021/12/03 07:31:05;;;;;;;8.73;6.47;;;;;;;7.54;57.24;98045.47;3370753;29;20559;-77
2021/12/03 07:32:47;;;;;;;9.68;6.75;;;;;;;7.53;57.10;98044.63;3375198;29;20056;-76
2021/12/03 07:34:28;;;;;;;12.07;7.28;;;;;;;7.54;57.03;98058.72;3375128;29;20583;-77
2021/12/03 07:36:09;;;;;;;10.27;6.53;;;;;;;7.54;57.30;98062.19;3374149;29;20132;-76
2021/12/03 07:37:50;;;;;;;9.18;6.72;;;;;;;7.51;57.14;98053.81;3375863;29;20040;-78
2021/12/03 07:39:30;;;;;;;9.77;7.15;;;;;;;7.54;57.14;98064.03;3380712;29;20056;-77
2021/12/03 07:41:11;;;;;;;12.18;7.20;;;;;;;7.54;57.33;98051.56;3380172;29;20071;-76
2021/12/03 07:42:52;;;;;;;9.13;6.47;;;;;;;7.55;57.22;98061.13;3376814;29;20460;-77
2021/12/03 07:44:33;;;;;;;9.88;6.35;;;;;;;7.57;57.19;98079.50;3381597;29;20135;-76
2021/12/03 07:46:15;;;;;;;11.38;7.00;;;;;;;7.54;57.10;98075.44;3383114;29;20040;-76
2021/12/03 07:47:56;;;;;;;15.00;7.05;;;;;;;7.54;57.16;98080.72;3381164;29;20415;-80
2021/12/03 07:49:39;;;;;;;8.32;7.05;;;;;;;7.53;57.08;98089.69;3380778;29;20048;-77
2021/12/03 07:51:20;;;;;;;12.32;7.78;;;;;;;7.54;57.03;98074.63;3379338;29;20071;-78
2021/12/03 07:53:02;;;;;;;9.80;6.88;;;;;;;7.53;57.08;98084.38;3379995;29;20115;-78
2021/12/03 07:54:42;;;;;;;9.98;6.90;;;;;;;7.54;57.08;98083.38;3378851;29;20470;-77
2021/12/03 07:56:23;;;;;;;10.35;6.72;;;;;;;7.57;57.19;98095.41;3368941;29;20052;-79
2021/12/03 07:58:05;;;;;;;9.50;6.75;;;;;;;7.55;57.12;98094.78;3368283;29;20045;-77
2021/12/03 07:59:45;;;;;;;11.20;7.35;;;;;;;7.58;57.06;98094.34;3379732;29;20048;-78
2021/12/03 08:01:26;;;;;;;12.18;7.00;;;;;;;7.58;57.03;98095.16;3379896;29;20048;-77
2021/12/03 08:03:07;;;;;;;8.90;6.10;;;;;;;7.57;57.13;98085.59;3379316;29;20045;-77
2021/12/03 08:04:48;;;;;;;13.30;6.82;;;;;;;7.61;57.17;98091.28;3379459;29;20040;-78